Orbital elements of VENUS
| Launched | 1 August 2017 |
| Flight ended | – |
| Launch site | Europe's Spaceport, Kourou, French Guiana |
| Owner | Israel |
| NORAD ID | 42901 |
| Date fetched |
Epoch osculation |
Inc. [°] |
Ecc. | RA asc node [hr] |
Arg Peri. [°] |
Mean anom [°] |
Mean motion [rev/day] |
Abs. mag |
| Date fetched |
Epoch osculation |
Inc. [°] |
Ecc. | RA asc node [hr] |
Arg Peri. [°] |
Mean anom [°] |
Mean motion [rev/day] |
Abs. mag |
| 2026 May 08 17:57 | 2026 May 05 13:03:34 | 97.2745 | 0.00048 | 10.9359 | 129.7425 | 230.4226 | 15.14233 | – |
| 2026 May 07 17:58 | 2026 May 05 13:03:34 | 97.2745 | 0.00048 | 10.9359 | 129.7425 | 230.4226 | 15.14233 | – |
| 2026 May 06 17:57 | 2026 May 05 13:03:34 | 97.2745 | 0.00048 | 10.9359 | 129.7425 | 230.4226 | 15.14233 | – |
| 2026 May 05 17:57 | 2026 May 05 13:03:34 | 97.2745 | 0.00048 | 10.9359 | 129.7425 | 230.4226 | 15.14233 | – |
| 2026 May 04 17:57 | 2026 Apr 30 14:06:31 | 97.2756 | 0.00042 | 10.6200 | 144.1645 | 230.4226 | 15.14233 | – |
| 2026 May 03 17:57 | 2026 Apr 30 14:06:31 | 97.2756 | 0.00042 | 10.6200 | 144.1645 | 230.4226 | 15.14233 | – |
| 2026 May 02 17:57 | 2026 Apr 30 14:06:31 | 97.2756 | 0.00042 | 10.6200 | 144.1645 | 230.4226 | 15.14233 | – |
| 2026 May 01 17:56 | 2026 Apr 30 14:06:31 | 97.2756 | 0.00042 | 10.6200 | 144.1645 | 230.4226 | 15.14233 | – |
| 2026 Apr 30 17:56 | 2026 Apr 30 14:06:31 | 97.2756 | 0.00042 | 10.6200 | 144.1645 | 230.4226 | 15.14233 | – |
| 2026 Apr 29 17:57 | 2026 Apr 24 12:11:20 | 97.2774 | 0.00037 | 10.2325 | 159.6835 | 230.4226 | 15.14233 | – |
| 2026 Apr 28 17:56 | 2026 Apr 24 12:11:20 | 97.2774 | 0.00037 | 10.2325 | 159.6835 | 230.4226 | 15.14233 | – |
| 2026 Apr 27 17:58 | 2026 Apr 24 12:11:20 | 97.2774 | 0.00037 | 10.2325 | 159.6835 | 230.4226 | 15.14233 | – |
| 2026 Apr 26 17:58 | 2026 Apr 24 12:11:20 | 97.2774 | 0.00037 | 10.2325 | 159.6835 | 230.4226 | 15.14233 | – |
| 2026 Apr 25 17:58 | 2026 Apr 24 12:11:20 | 97.2774 | 0.00037 | 10.2325 | 159.6835 | 230.4226 | 15.14233 | – |
| 2026 Apr 24 17:59 | 2026 Apr 24 12:11:20 | 97.2774 | 0.00037 | 10.2325 | 159.6835 | 230.4226 | 15.14233 | – |
| 2026 Apr 23 17:57 | 2026 Apr 19 13:13:39 | 97.2772 | 0.00032 | 9.9164 | 171.0229 | 230.4226 | 15.14233 | – |
| 2026 Apr 22 17:57 | 2026 Apr 19 13:13:39 | 97.2772 | 0.00032 | 9.9164 | 171.0229 | 230.4226 | 15.14233 | – |
| 2026 Apr 21 17:57 | 2026 Apr 19 13:13:39 | 97.2772 | 0.00032 | 9.9164 | 171.0229 | 230.4226 | 15.14233 | – |
| 2026 Apr 20 17:57 | 2026 Apr 19 13:13:39 | 97.2772 | 0.00032 | 9.9164 | 171.0229 | 230.4226 | 15.14233 | – |
| 2026 Apr 19 17:58 | 2026 Apr 19 13:13:39 | 97.2772 | 0.00032 | 9.9164 | 171.0229 | 230.4226 | 15.14233 | – |
| 2026 Apr 18 17:56 | 2026 Apr 13 06:32:19 | 97.2790 | 0.00025 | 9.5162 | 195.6998 | 230.4226 | 15.14233 | – |
| 2026 Apr 16 17:57 | 2026 Apr 13 06:32:19 | 97.2790 | 0.00025 | 9.5162 | 195.6998 | 230.4226 | 15.14233 | – |
| 2026 Apr 14 17:57 | 2026 Apr 13 06:32:19 | 97.2790 | 0.00025 | 9.5162 | 195.6998 | 230.4226 | 15.14233 | – |
| 2026 Apr 13 17:57 | 2026 Apr 13 06:32:19 | 97.2790 | 0.00025 | 9.5162 | 195.6998 | 230.4226 | 15.14233 | – |
| 2026 Apr 12 17:57 | 2026 Apr 08 13:54:56 | 97.2795 | 0.00021 | 9.2171 | 219.9378 | 230.4226 | 15.14233 | – |
| 2026 Apr 11 17:57 | 2026 Apr 08 13:54:56 | 97.2795 | 0.00021 | 9.2171 | 219.9378 | 230.4226 | 15.14233 | – |